Time;durP1;ratioP1;P1;durP2;ratioP2;P2;SDS_P1;SDS_P2;PMS_P1;PMS_P2;Temp;Humidity;BMP_temperature;BMP_pressure;BME280_temperature;BME280_humidity;BME280_pressure;Samples;Min_cycle;Max_cycle;Signal;HPM_P1;HPM_P2
2024/02/07 00:02:08;;;;;;;3.63;3.17;;;;;;;;;;5113970;28;20586;-86
2024/02/07 00:04:34;;;;;;;3.50;3.20;;;;;;;;;;5114069;28;20204;-85
2024/02/07 00:07:03;;;;;;;4.10;3.67;;;;;;;;;;5113805;28;20203;-85
2024/02/07 00:09:30;;;;;;;5.73;2.93;;;;;;;;;;5113728;28;20195;-86
2024/02/07 00:11:57;;;;;;;4.43;2.87;;;;;;;;;;5102800;28;20230;-86
2024/02/07 00:14:24;;;;;;;2.57;2.37;;;;;;;;;;5097472;28;20666;-86
2024/02/07 00:16:55;;;;;;;3.20;2.80;;;;;;;;;;5114038;28;20686;-86
2024/02/07 00:19:22;;;;;;;89.67;44.63;;;;;;;;;;5108202;28;20219;-86
2024/02/07 00:21:49;;;;;;;9.63;5.73;;;;;;;;;;5105646;28;20203;-86
2024/02/07 00:24:16;;;;;;;4.13;3.43;;;;;;;;;;5113352;28;20207;-86
2024/02/07 00:26:43;;;;;;;5.50;3.40;;;;;;;;;;5101226;28;20212;-87
2024/02/07 00:29:10;;;;;;;4.30;2.77;;;;;;;;;;5112362;28;20635;-86
2024/02/07 00:31:37;;;;;;;14.10;7.30;;;;;;;;;;5066200;28;20297;-85
2024/02/07 00:34:05;;;;;;;16.10;8.57;;;;;;;;;;5112058;28;20206;-86
2024/02/07 00:36:31;;;;;;;9.67;5.50;;;;;;;;;;5100515;28;20616;-85
2024/02/07 00:38:59;;;;;;;6.17;4.10;;;;;;;;;;5106606;28;20208;-85
2024/02/07 00:41:26;;;;;;;5.30;4.30;;;;;;;;;;5106907;28;20253;-86
2024/02/07 00:43:53;;;;;;;10.20;4.20;;;;;;;;;;5106706;28;20235;-86
2024/02/07 00:46:20;;;;;;;4.80;3.40;;;;;;;;;;5106317;28;20673;-87
2024/02/07 00:48:47;;;;;;;3.63;3.03;;;;;;;;;;5100160;28;20299;-86
2024/02/07 00:51:15;;;;;;;4.33;2.93;;;;;;;;;;5080414;28;20228;-87
2024/02/07 00:53:42;;;;;;;4.00;3.10;;;;;;;;;;5113288;28;20280;-86
2024/02/07 00:56:09;;;;;;;18.40;10.77;;;;;;;;;;5099780;28;20208;-86
2024/02/07 00:58:37;;;;;;;9.83;6.67;;;;;;;;;;5112694;28;20207;-85
2024/02/07 01:01:04;;;;;;;10.90;5.57;;;;;;;;;;5099159;28;20200;-86
2024/02/07 01:03:31;;;;;;;7.63;5.07;;;;;;;;;;5112762;28;20230;-86
2024/02/07 01:05:58;;;;;;;6.80;5.10;;;;;;;;;;5110624;28;20248;-86
2024/02/07 01:08:26;;;;;;;23.23;12.43;;;;;;;;;;5101543;28;20210;-86
2024/02/07 01:10:53;;;;;;;57.23;28.63;;;;;;;;;;5112552;28;20673;-86
2024/02/07 01:13:20;;;;;;;40.27;22.67;;;;;;;;;;5112221;28;20708;-86
2024/02/07 01:15:47;;;;;;;11.33;7.33;;;;;;;;;;5093039;28;20204;-85
2024/02/07 01:18:14;;;;;;;9.93;5.40;;;;;;;;;;5102035;28;20207;-86
2024/02/07 01:20:41;;;;;;;6.10;3.97;;;;;;;;;;5112020;28;20776;-86
2024/02/07 01:23:09;;;;;;;6.50;4.23;;;;;;;;;;5112782;28;20199;-85
2024/02/07 01:25:37;;;;;;;3.03;2.77;;;;;;;;;;5112157;28;20212;-86
2024/02/07 01:28:05;;;;;;;7.93;3.40;;;;;;;;;;5102783;28;20291;-85
2024/02/07 01:30:31;;;;;;;4.00;2.90;;;;;;;;;;5091897;28;20683;-86
2024/02/07 01:32:58;;;;;;;4.87;3.20;;;;;;;;;;5092277;28;20257;-86
2024/02/07 01:35:26;;;;;;;3.33;2.73;;;;;;;;;;5095401;28;20222;-86
2024/02/07 01:37:54;;;;;;;3.17;2.63;;;;;;;;;;5101549;28;20569;-85
2024/02/07 01:40:23;;;;;;;2.93;2.67;;;;;;;;;;5105250;28;20216;-85
2024/02/07 01:42:51;;;;;;;3.00;2.07;;;;;;;;;;5103250;28;20210;-85
2024/02/07 01:45:23;;;;;;;4.27;3.27;;;;;;;;;;5106550;28;20203;-85
2024/02/07 01:47:50;;;;;;;4.50;3.17;;;;;;;;;;5092135;28;20277;-86
2024/02/07 01:50:17;;;;;;;6.13;3.00;;;;;;;;;;5111254;28;20234;-85
2024/02/07 01:52:46;;;;;;;5.83;3.13;;;;;;;;;;5098932;28;20299;-85
2024/02/07 01:55:13;;;;;;;3.47;3.17;;;;;;;;;;5111730;28;20239;-85
2024/02/07 01:57:40;;;;;;;3.47;2.93;;;;;;;;;;5098432;28;20211;-85
2024/02/07 02:00:10;;;;;;;3.70;2.63;;;;;;;;;;5098530;28;20253;-85
2024/02/07 02:02:37;;;;;;;2.53;2.33;;;;;;;;;;5111670;28;20199;-86
2024/02/07 02:05:04;;;;;;;3.20;2.77;;;;;;;;;;5111758;28;20204;-86
2024/02/07 02:07:31;;;;;;;7.87;5.73;;;;;;;;;;5110285;28;20208;-85
2024/02/07 02:09:59;;;;;;;11.17;7.00;;;;;;;;;;5099999;28;20209;-84
2024/02/07 02:12:27;;;;;;;33.83;26.10;;;;;;;;;;5111706;28;20589;-85
2024/02/07 02:14:54;;;;;;;12.23;10.93;;;;;;;;;;5112089;28;20222;-86
2024/02/07 02:17:22;;;;;;;10.23;6.87;;;;;;;;;;5109131;28;20215;-86
2024/02/07 02:19:50;;;;;;;5.50;3.43;;;;;;;;;;5091265;28;20250;-85
2024/02/07 02:22:46;;;;;;;3.50;3.20;;;;;;;;;;5106249;28;20210;-85
2024/02/07 02:25:34;;;;;;;4.43;3.47;;;;;;;;;;5104163;28;20591;-85
2024/02/07 02:28:17;;;;;;;3.40;2.93;;;;;;;;;;5111659;28;20203;-84
2024/02/07 02:30:50;;;;;;;6.00;3.10;;;;;;;;;;5105801;28;20264;-85
2024/02/07 02:33:19;;;;;;;3.90;3.50;;;;;;;;;;5104702;28;20199;-84
2024/02/07 02:35:47;;;;;;;7.93;4.80;;;;;;;;;;5097848;28;20207;-84
2024/02/07 02:38:15;;;;;;;6.70;4.50;;;;;;;;;;5110939;28;20231;-85
2024/02/07 02:40:43;;;;;;;7.10;5.40;;;;;;;;;;5104161;28;20212;-85
2024/02/07 02:43:11;;;;;;;3.63;3.00;;;;;;;;;;5104341;28;20211;-85
2024/02/07 02:45:37;;;;;;;5.50;3.90;;;;;;;;;;5099173;28;20220;-85
2024/02/07 02:48:06;;;;;;;4.37;2.87;;;;;;;;;;5111471;28;20272;-85
2024/02/07 02:50:34;;;;;;;2.87;2.40;;;;;;;;;;5110898;28;20218;-85
2024/02/07 02:53:04;;;;;;;2.30;2.00;;;;;;;;;;5097523;28;20208;-85
2024/02/07 02:55:31;;;;;;;2.50;2.30;;;;;;;;;;5111585;28;20203;-85
2024/02/07 02:58:00;;;;;;;2.77;2.50;;;;;;;;;;5111399;28;20769;-85
2024/02/07 03:00:28;;;;;;;5.10;3.03;;;;;;;;;;5101133;28;20211;-85
2024/02/07 03:02:56;;;;;;;5.07;3.07;;;;;;;;;;5104663;28;20200;-85
2024/02/07 03:05:45;;;;;;;3.57;2.73;;;;;;;;;;5101279;28;20227;-86
2024/02/07 03:08:21;;;;;;;2.60;2.40;;;;;;;;;;5104010;28;20208;-85
2024/02/07 03:10:50;;;;;;;2.77;2.57;;;;;;;;;;5105964;28;20219;-85
2024/02/07 03:13:18;;;;;;;5.23;3.30;;;;;;;;;;5111362;28;20204;-85
2024/02/07 03:15:45;;;;;;;3.87;2.60;;;;;;;;;;5101213;28;20593;-84
2024/02/07 03:18:12;;;;;;;3.73;2.87;;;;;;;;;;5115073;28;20211;-84
2024/02/07 03:20:41;;;;;;;4.07;2.27;;;;;;;;;;5114963;28;20289;-84
2024/02/07 03:23:08;;;;;;;20.83;13.70;;;;;;;;;;5114733;28;20235;-85
2024/02/07 03:25:36;;;;;;;51.50;28.93;;;;;;;;;;5113941;28;21840;-85
2024/02/07 03:28:04;;;;;;;34.93;21.30;;;;;;;;;;5114894;28;20207;-85
2024/02/07 03:30:31;;;;;;;61.67;37.53;;;;;;;;;;5114283;28;20319;-85
2024/02/07 03:32:58;;;;;;;19.03;13.33;;;;;;;;;;5114895;28;20284;-83
2024/02/07 03:35:25;;;;;;;10.93;7.07;;;;;;;;;;5114853;28;20207;-84
2024/02/07 03:37:55;;;;;;;5.57;4.57;;;;;;;;;;5114456;28;20638;-83
2024/02/07 03:40:22;;;;;;;7.57;3.37;;;;;;;;;;5114134;28;20279;-85
2024/02/07 03:42:50;;;;;;;4.60;2.83;;;;;;;;;;5103066;28;20287;-85
2024/02/07 03:45:17;;;;;;;5.37;3.37;;;;;;;;;;5111627;28;20219;-85
2024/02/07 03:47:44;;;;;;;55.33;29.13;;;;;;;;;;5114650;28;20203;-83
2024/02/07 03:50:11;;;;;;;13.80;9.93;;;;;;;;;;5114384;28;20665;-83
2024/02/07 03:52:39;;;;;;;9.90;6.53;;;;;;;;;;5114307;28;20230;-84
2024/02/07 03:55:08;;;;;;;5.77;3.53;;;;;;;;;;5100941;28;20195;-84
2024/02/07 03:57:36;;;;;;;5.00;3.50;;;;;;;;;;5100807;28;20200;-84
2024/02/07 04:00:07;;;;;;;6.83;4.23;;;;;;;;;;5114445;28;20282;-84
2024/02/07 04:02:38;;;;;;;12.00;5.70;;;;;;;;;;5112651;28;20628;-84
2024/02/07 04:05:07;;;;;;;8.40;4.67;;;;;;;;;;5103246;28;20203;-84
2024/02/07 04:07:34;;;;;;;4.53;3.63;;;;;;;;;;5114116;28;20312;-84
2024/02/07 04:10:01;;;;;;;4.27;3.27;;;;;;;;;;5113740;28;20211;-83
2024/02/07 05:17:30;;;;;;;2.17;1.93;;;;;;;;;;5102963;28;20210;-84
2024/02/07 05:19:57;;;;;;;3.20;2.77;;;;;;;;;;5094116;28;20200;-83
2024/02/07 05:22:24;;;;;;;3.23;2.70;;;;;;;;;;5089384;28;20199;-82
2024/02/07 05:24:52;;;;;;;2.67;2.47;;;;;;;;;;5097181;28;20204;-82
2024/02/07 05:27:19;;;;;;;3.47;2.30;;;;;;;;;;5100394;28;20303;-83
2024/02/07 05:29:45;;;;;;;4.40;3.57;;;;;;;;;;5097452;28;20200;-84
2024/02/07 05:32:12;;;;;;;4.87;3.50;;;;;;;;;;5099911;28;20243;-84
2024/02/07 05:34:41;;;;;;;2.87;2.03;;;;;;;;;;5111305;28;20282;-82
2024/02/07 05:37:07;;;;;;;3.90;2.87;;;;;;;;;;5111469;28;20210;-84
2024/02/07 05:39:35;;;;;;;3.27;2.97;;;;;;;;;;5098233;28;20200;-84
2024/02/07 05:42:04;;;;;;;3.07;2.77;;;;;;;;;;5094299;28;20203;-85
2024/02/07 05:44:31;;;;;;;10.60;6.77;;;;;;;;;;5105517;28;20272;-85
2024/02/07 05:46:58;;;;;;;25.73;15.50;;;;;;;;;;5112124;28;20210;-84
2024/02/07 05:49:25;;;;;;;5.03;4.03;;;;;;;;;;5111626;28;20210;-85
2024/02/07 05:51:58;;;;;;;8.17;4.73;;;;;;;;;;5109844;28;20967;-84
2024/02/07 05:54:25;;;;;;;4.30;2.80;;;;;;;;;;5111739;28;20709;-84
2024/02/07 05:56:52;;;;;;;2.37;2.17;;;;;;;;;;5112033;28;20253;-84
2024/02/07 05:59:19;;;;;;;2.93;2.67;;;;;;;;;;5096322;28;20208;-84
2024/02/07 06:01:47;;;;;;;2.77;2.20;;;;;;;;;;5101009;28;20558;-84
2024/02/07 06:04:13;;;;;;;4.97;2.60;;;;;;;;;;5108610;28;20753;-84
2024/02/07 06:06:41;;;;;;;2.20;2.00;;;;;;;;;;5100652;28;20207;-84
2024/02/07 06:09:10;;;;;;;5.80;4.30;;;;;;;;;;5109106;28;20669;-84
2024/02/07 06:11:41;;;;;;;5.30;4.40;;;;;;;;;;5101400;28;20225;-84
2024/02/07 06:14:08;;;;;;;7.87;4.60;;;;;;;;;;5097712;28;20229;-85
2024/02/07 06:16:35;;;;;;;4.10;3.70;;;;;;;;;;5112128;28;20306;-84
2024/02/07 06:19:05;;;;;;;4.90;4.40;;;;;;;;;;5111525;28;20195;-85
2024/02/07 06:21:32;;;;;;;6.83;4.80;;;;;;;;;;5111294;28;20265;-85
2024/02/07 06:23:59;;;;;;;7.90;4.60;;;;;;;;;;5111388;28;20204;-84
2024/02/07 06:26:27;;;;;;;6.13;4.70;;;;;;;;;;5111622;28;20268;-84
2024/02/07 06:28:54;;;;;;;12.80;4.10;;;;;;;;;;5097597;28;20268;-85
2024/02/07 06:31:21;;;;;;;12.47;6.87;;;;;;;;;;5111024;28;20231;-85
2024/02/07 06:33:48;;;;;;;22.87;14.17;;;;;;;;;;5098317;28;20268;-84
2024/02/07 06:36:15;;;;;;;15.33;11.43;;;;;;;;;;5111835;28;20203;-84
2024/02/07 06:38:41;;;;;;;14.67;11.50;;;;;;;;;;5111855;28;20676;-84
2024/02/07 06:41:08;;;;;;;24.30;12.03;;;;;;;;;;5100636;28;20215;-85
2024/02/07 06:43:36;;;;;;;22.23;14.83;;;;;;;;;;5104418;28;20207;-85
2024/02/07 06:46:04;;;;;;;17.77;9.13;;;;;;;;;;5102525;28;20211;-85
2024/02/07 06:48:31;;;;;;;11.93;7.33;;;;;;;;;;5097862;28;20689;-84
2024/02/07 06:50:57;;;;;;;21.17;10.53;;;;;;;;;;5115289;28;20195;-84
2024/02/07 06:53:24;;;;;;;18.67;8.67;;;;;;;;;;5115203;28;20227;-85
2024/02/07 06:55:54;;;;;;;16.50;9.00;;;;;;;;;;5115387;28;20199;-85
2024/02/07 06:58:21;;;;;;;10.77;7.13;;;;;;;;;;5096068;28;20208;-85
2024/02/07 07:00:49;;;;;;;15.27;7.47;;;;;;;;;;5107147;28;20265;-84
2024/02/07 07:03:16;;;;;;;7.80;5.87;;;;;;;;;;5115061;28;20211;-86
2024/02/07 07:05:43;;;;;;;16.27;10.00;;;;;;;;;;5115485;28;20203;-84
2024/02/07 07:08:09;;;;;;;21.30;12.07;;;;;;;;;;5101812;28;20203;-85
2024/02/07 07:10:36;;;;;;;21.93;15.80;;;;;;;;;;5115065;28;20200;-85
2024/02/07 07:13:03;;;;;;;25.37;19.13;;;;;;;;;;5101447;28;20224;-85
2024/02/07 07:15:30;;;;;;;24.63;20.67;;;;;;;;;;5114942;28;20265;-86
2024/02/07 07:17:59;;;;;;;26.50;21.33;;;;;;;;;;5108300;28;20204;-87
2024/02/07 07:20:30;;;;;;;31.03;18.87;;;;;;;;;;5094493;28;20209;-85
2024/02/07 07:22:57;;;;;;;24.83;19.10;;;;;;;;;;5101554;28;20207;-85
2024/02/07 07:25:24;;;;;;;26.83;15.10;;;;;;;;;;5114307;28;20194;-84
2024/02/07 07:27:51;;;;;;;19.57;11.57;;;;;;;;;;5114700;28;20678;-85
2024/02/07 07:30:18;;;;;;;15.97;8.67;;;;;;;;;;5100603;28;20243;-85
2024/02/07 07:32:44;;;;;;;8.33;5.77;;;;;;;;;;5115104;28;20276;-86
2024/02/07 07:35:13;;;;;;;7.80;5.20;;;;;;;;;;5115021;28;20210;-85
2024/02/07 07:37:39;;;;;;;10.47;4.00;;;;;;;;;;5114534;28;20208;-86
2024/02/07 07:40:07;;;;;;;9.23;5.40;;;;;;;;;;5114783;28;20238;-86
2024/02/07 07:42:34;;;;;;;7.83;5.90;;;;;;;;;;5114697;28;20214;-86
2024/02/07 07:45:01;;;;;;;7.57;5.17;;;;;;;;;;5113666;28;20209;-85
2024/02/07 07:47:28;;;;;;;11.63;5.87;;;;;;;;;;5114200;28;20207;-86
2024/02/07 07:49:54;;;;;;;13.40;4.40;;;;;;;;;;5114174;28;20214;-85
2024/02/07 07:52:23;;;;;;;8.50;4.00;;;;;;;;;;5113839;28;20721;-87
2024/02/07 07:54:49;;;;;;;10.27;7.80;;;;;;;;;;5114344;28;20231;-85
2024/02/07 07:57:16;;;;;;;18.03;9.53;;;;;;;;;;5114288;28;20203;-86
2024/02/07 07:59:43;;;;;;;17.47;9.07;;;;;;;;;;5113658;28;20207;-86
2024/02/07 08:02:10;;;;;;;15.37;9.80;;;;;;;;;;5114419;28;20187;-86
2024/02/07 08:04:37;;;;;;;8.10;5.30;;;;;;;;;;5113778;28;20202;-86
2024/02/07 08:07:04;;;;;;;11.63;5.63;;;;;;;;;;5113877;28;20203;-86
2024/02/07 08:09:32;;;;;;;7.67;5.43;;;;;;;;;;5110923;28;20204;-86
2024/02/07 08:11:59;;;;;;;8.93;5.70;;;;;;;;;;5104794;28;20211;-86
2024/02/07 08:14:25;;;;;;;13.40;4.73;;;;;;;;;;5100131;28;20212;-87
2024/02/07 08:16:53;;;;;;;9.67;5.90;;;;;;;;;;5114108;28;20215;-85
2024/02/07 08:19:19;;;;;;;9.47;5.93;;;;;;;;;;5110239;28;20200;-86
2024/02/07 08:21:46;;;;;;;6.80;4.23;;;;;;;;;;5103754;28;20200;-86
2024/02/07 08:24:13;;;;;;;14.50;5.63;;;;;;;;;;5113285;28;20211;-86
2024/02/07 08:26:41;;;;;;;6.67;4.60;;;;;;;;;;5113584;28;20738;-86
2024/02/07 08:29:08;;;;;;;9.87;7.70;;;;;;;;;;5113642;28;20693;-86
2024/02/07 08:31:35;;;;;;;15.13;9.10;;;;;;;;;;5113908;28;20242;-86
2024/02/07 08:34:05;;;;;;;12.23;6.93;;;;;;;;;;5108413;28;20247;-86
2024/02/07 08:36:32;;;;;;;7.50;5.47;;;;;;;;;;5093748;28;20229;-86
2024/02/07 08:38:59;;;;;;;7.43;5.17;;;;;;;;;;5099926;28;20205;-86
2024/02/07 08:41:26;;;;;;;8.83;7.00;;;;;;;;;;5113808;28;20201;-87
2024/02/07 08:43:54;;;;;;;13.80;5.70;;;;;;;;;;5100070;28;20213;-87
2024/02/07 08:46:21;;;;;;;9.07;4.83;;;;;;;;;;5113816;28;20199;-87
2024/02/07 08:48:48;;;;;;;8.30;4.57;;;;;;;;;;5113593;28;20213;-86
2024/02/07 08:51:16;;;;;;;6.63;4.07;;;;;;;;;;5112527;28;20211;-87
2024/02/07 08:53:43;;;;;;;5.90;4.20;;;;;;;;;;5100799;28;20279;-87
2024/02/07 08:56:09;;;;;;;5.83;4.20;;;;;;;;;;5113034;28;20724;-87
2024/02/07 08:58:38;;;;;;;9.07;4.40;;;;;;;;;;5112908;28;20669;-87
2024/02/07 09:01:07;;;;;;;6.37;4.40;;;;;;;;;;5113369;28;20290;-86
2024/02/07 09:03:33;;;;;;;9.07;4.63;;;;;;;;;;5113358;28;20255;-86
2024/02/07 09:06:01;;;;;;;4.33;3.50;;;;;;;;;;5111440;28;20226;-86
2024/02/07 09:08:28;;;;;;;3.70;3.40;;;;;;;;;;5101980;28;20215;-86
2024/02/07 09:10:56;;;;;;;6.93;4.17;;;;;;;;;;5112502;28;20668;-86
2024/02/07 09:13:22;;;;;;;5.50;4.03;;;;;;;;;;5112683;28;20331;-87
2024/02/07 09:15:49;;;;;;;7.50;4.47;;;;;;;;;;5112928;28;20215;-86
2024/02/07 09:18:19;;;;;;;8.33;4.80;;;;;;;;;;5112643;28;20200;-87
2024/02/07 09:20:45;;;;;;;8.77;5.33;;;;;;;;;;5112446;28;20214;-87
2024/02/07 09:23:12;;;;;;;11.37;5.20;;;;;;;;;;5102281;28;20203;-87
2024/02/07 09:25:39;;;;;;;6.37;5.53;;;;;;;;;;5109626;28;20203;-87
2024/02/07 09:28:06;;;;;;;9.10;5.23;;;;;;;;;;5113058;28;20206;-87
2024/02/07 09:30:33;;;;;;;10.07;7.67;;;;;;;;;;5112528;28;20234;-87
2024/02/07 09:33:00;;;;;;;9.03;6.10;;;;;;;;;;5102593;28;20241;-87
2024/02/07 09:35:29;;;;;;;11.53;6.97;;;;;;;;;;5109419;28;20294;-87
2024/02/07 09:37:56;;;;;;;7.47;5.87;;;;;;;;;;5112539;28;20205;-87
2024/02/07 09:40:23;;;;;;;10.70;6.00;;;;;;;;;;5108480;28;20219;-87
2024/02/07 09:42:51;;;;;;;6.20;4.90;;;;;;;;;;5103158;28;20232;-87
2024/02/07 09:45:20;;;;;;;9.80;5.97;;;;;;;;;;5098866;28;20346;-87
2024/02/07 09:47:51;;;;;;;10.67;6.73;;;;;;;;;;5112762;28;20204;-88
2024/02/07 09:50:20;;;;;;;10.10;5.93;;;;;;;;;;5112358;28;20195;-87
2024/02/07 09:52:49;;;;;;;11.03;5.77;;;;;;;;;;5112113;28;20271;-87
2024/02/07 09:55:16;;;;;;;9.57;5.50;;;;;;;;;;5098964;28;20198;-87
2024/02/07 09:57:43;;;;;;;6.80;5.23;;;;;;;;;;5099025;28;20397;-87
2024/02/07 10:00:13;;;;;;;7.30;6.03;;;;;;;;;;5112516;28;20205;-89
2024/02/07 10:02:44;;;;;;;12.33;9.13;;;;;;;;;;5099116;28;20211;-87
2024/02/07 10:05:12;;;;;;;16.27;9.63;;;;;;;;;;5112178;28;20210;-89
2024/02/07 10:07:39;;;;;;;20.50;13.40;;;;;;;;;;5099216;28;20670;-87
2024/02/07 10:10:09;;;;;;;18.63;14.47;;;;;;;;;;5103203;28;20690;-87
2024/02/07 10:12:36;;;;;;;15.43;10.90;;;;;;;;;;5108426;28;20276;-87
2024/02/07 10:15:04;;;;;;;8.93;8.03;;;;;;;;;;5102316;28;20295;-87
2024/02/07 10:17:30;;;;;;;11.83;10.53;;;;;;;;;;5105693;28;20216;-88
2024/02/07 10:19:57;;;;;;;14.50;11.67;;;;;;;;;;5101916;28;20210;-86
2024/02/07 10:22:24;;;;;;;10.47;7.47;;;;;;;;;;5108603;28;20208;-88
2024/02/07 10:24:51;;;;;;;7.77;6.10;;;;;;;;;;5102049;28;20203;-88
2024/02/07 10:27:21;;;;;;;16.23;9.40;;;;;;;;;;5098587;28;20272;-87
2024/02/07 10:29:48;;;;;;;7.87;6.40;;;;;;;;;;5100983;28;20222;-88
2024/02/07 10:32:18;;;;;;;10.53;6.17;;;;;;;;;;5106126;28;20211;-88
2024/02/07 10:34:51;;;;;;;17.87;9.10;;;;;;;;;;5103724;28;20667;-88
2024/02/07 10:37:18;;;;;;;12.57;8.97;;;;;;;;;;5111693;28;20662;-88
2024/02/07 10:39:45;;;;;;;8.87;7.50;;;;;;;;;;5111793;28;20722;-88
2024/02/07 10:42:12;;;;;;;7.27;5.17;;;;;;;;;;5098425;28;20234;-87
2024/02/07 10:44:40;;;;;;;12.97;9.50;;;;;;;;;;5111808;28;20580;-87
2024/02/07 10:47:10;;;;;;;11.80;8.30;;;;;;;;;;5091831;28;20226;-87
2024/02/07 10:49:37;;;;;;;6.90;5.77;;;;;;;;;;5105447;28;20293;-88
2024/02/07 10:52:04;;;;;;;9.23;6.30;;;;;;;;;;5099278;28;20290;-87
2024/02/07 10:54:32;;;;;;;7.80;6.47;;;;;;;;;;5110926;28;20231;-88
2024/02/07 10:57:01;;;;;;;9.77;6.57;;;;;;;;;;5099569;28;20214;-87
2024/02/07 10:59:28;;;;;;;5.77;4.83;;;;;;;;;;5098223;28;20212;-88
2024/02/07 11:01:56;;;;;;;6.90;5.80;;;;;;;;;;5103944;28;20210;-87
2024/02/07 11:04:24;;;;;;;7.73;6.00;;;;;;;;;;5093123;28;20204;-88
2024/02/07 11:06:51;;;;;;;6.33;4.90;;;;;;;;;;5111532;28;20208;-88
2024/02/07 11:09:18;;;;;;;9.77;7.20;;;;;;;;;;5111645;28;20292;-88
2024/02/07 11:11:47;;;;;;;5.80;5.03;;;;;;;;;;5112245;28;20200;-88
2024/02/07 11:14:14;;;;;;;7.37;5.17;;;;;;;;;;5098248;28;20697;-88
2024/02/07 11:16:40;;;;;;;19.30;11.10;;;;;;;;;;5111681;28;20203;-88
2024/02/07 11:19:09;;;;;;;13.83;9.20;;;;;;;;;;5098025;28;20215;-88
2024/02/07 11:21:38;;;;;;;7.00;6.30;;;;;;;;;;5112025;28;20629;-88
2024/02/07 11:24:07;;;;;;;10.53;7.07;;;;;;;;;;5111690;28;20324;-88
2024/02/07 11:26:35;;;;;;;12.17;10.87;;;;;;;;;;5111563;28;20222;-88
2024/02/07 11:29:03;;;;;;;10.23;8.80;;;;;;;;;;5098147;28;20235;-88
2024/02/07 11:31:30;;;;;;;19.73;12.57;;;;;;;;;;5111841;28;20227;-88
2024/02/07 11:33:57;;;;;;;14.40;11.53;;;;;;;;;;5111420;28;20255;-87
2024/02/07 11:36:28;;;;;;;12.03;8.27;;;;;;;;;;5103224;28;20204;-88
2024/02/07 11:38:56;;;;;;;11.87;9.70;;;;;;;;;;5114277;28;20224;-88
2024/02/07 11:41:23;;;;;;;13.60;8.53;;;;;;;;;;5115412;28;20214;-87
2024/02/07 11:43:53;;;;;;;9.83;7.60;;;;;;;;;;5109049;28;20206;-88
2024/02/07 11:46:19;;;;;;;26.30;13.47;;;;;;;;;;5108187;28;20661;-88
2024/02/07 11:48:51;;;;;;;29.53;17.53;;;;;;;;;;5108266;28;20212;-88
2024/02/07 11:51:18;;;;;;;19.27;13.87;;;;;;;;;;5108520;28;20203;-88
2024/02/07 11:53:46;;;;;;;13.97;10.00;;;;;;;;;;5102482;28;20226;-88
2024/02/07 11:56:14;;;;;;;16.70;12.67;;;;;;;;;;5113672;28;20213;-88
2024/02/07 11:58:42;;;;;;;8.47;7.50;;;;;;;;;;5094629;28;20211;-88
2024/02/07 12:01:09;;;;;;;9.73;7.20;;;;;;;;;;5094720;28;20208;-88
2024/02/07 12:03:38;;;;;;;12.00;6.97;;;;;;;;;;5103951;28;20299;-88
2024/02/07 12:06:08;;;;;;;11.63;7.30;;;;;;;;;;5101886;28;20676;-88
2024/02/07 12:08:35;;;;;;;12.87;7.90;;;;;;;;;;5104938;28;20215;-88
2024/02/07 12:11:04;;;;;;;10.27;7.57;;;;;;;;;;5111421;28;20221;-88
2024/02/07 12:13:32;;;;;;;9.97;8.40;;;;;;;;;;5114663;28;20226;-88
2024/02/07 12:16:00;;;;;;;9.50;5.97;;;;;;;;;;5114858;28;20210;-87
2024/02/07 12:18:27;;;;;;;9.10;7.03;;;;;;;;;;5104165;28;20208;-87
2024/02/07 12:20:59;;;;;;;14.67;9.33;;;;;;;;;;5112071;28;20214;-88
2024/02/07 12:23:26;;;;;;;6.10;4.63;;;;;;;;;;5114963;28;20200;-88
2024/02/07 12:25:57;;;;;;;25.83;13.37;;;;;;;;;;5114109;28;20195;-88
2024/02/07 12:28:26;;;;;;;14.80;10.43;;;;;;;;;;5101393;28;20208;-88
2024/02/07 12:30:55;;;;;;;46.20;21.70;;;;;;;;;;5113941;28;20231;-87
2024/02/07 12:33:22;;;;;;;49.77;26.80;;;;;;;;;;5114296;28;20211;-88
2024/02/07 12:35:54;;;;;;;42.10;22.80;;;;;;;;;;5114432;28;20246;-88
2024/02/07 12:38:21;;;;;;;45.87;26.80;;;;;;;;;;5100526;28;20564;-88
2024/02/07 12:40:52;;;;;;;52.93;31.17;;;;;;;;;;5105649;28;20198;-88
2024/02/07 12:43:19;;;;;;;12.63;9.97;;;;;;;;;;5110067;28;20682;-87
2024/02/07 12:45:51;;;;;;;16.03;13.87;;;;;;;;;;5113346;28;20233;-87
2024/02/07 12:48:18;;;;;;;12.10;7.47;;;;;;;;;;5113086;28;20579;-88
2024/02/07 12:50:45;;;;;;;12.77;6.23;;;;;;;;;;5113827;28;20208;-87
2024/02/07 12:53:12;;;;;;;5.83;5.10;;;;;;;;;;5113920;28;20684;-87
2024/02/07 12:55:39;;;;;;;13.77;7.73;;;;;;;;;;5113795;28;20284;-88
2024/02/07 12:58:06;;;;;;;8.17;6.53;;;;;;;;;;5113992;28;20215;-88
2024/02/07 13:00:33;;;;;;;19.90;10.53;;;;;;;;;;5113848;28;20654;-87
2024/02/07 13:03:02;;;;;;;11.17;9.40;;;;;;;;;;5095657;28;20579;-88
2024/02/07 13:05:29;;;;;;;13.33;8.67;;;;;;;;;;5093351;28;20576;-88
2024/02/07 13:07:56;;;;;;;22.43;15.40;;;;;;;;;;5111617;28;20192;-87
2024/02/07 13:10:23;;;;;;;32.47;21.97;;;;;;;;;;5101896;28;20219;-88
2024/02/07 13:12:49;;;;;;;17.00;12.97;;;;;;;;;;5111873;28;20214;-87
2024/02/07 13:15:17;;;;;;;10.73;9.73;;;;;;;;;;5113302;28;20295;-88
2024/02/07 13:17:44;;;;;;;8.73;6.70;;;;;;;;;;5113529;28;20208;-88
2024/02/07 13:20:13;;;;;;;9.07;6.40;;;;;;;;;;5113412;28;20203;-88
2024/02/07 13:22:40;;;;;;;8.30;4.27;;;;;;;;;;5108000;28;20214;-88
2024/02/07 13:25:11;;;;;;;7.13;4.97;;;;;;;;;;5105409;28;20207;-87
2024/02/07 13:27:38;;;;;;;7.10;4.40;;;;;;;;;;5113483;28;20203;-88
2024/02/07 13:30:06;;;;;;;6.90;4.37;;;;;;;;;;5113175;28;20218;-88
2024/02/07 13:32:33;;;;;;;6.37;4.63;;;;;;;;;;5100330;28;20230;-88
2024/02/07 13:35:00;;;;;;;8.23;4.90;;;;;;;;;;5112758;28;20227;-88
2024/02/07 13:37:28;;;;;;;5.20;4.53;;;;;;;;;;5113331;28;20211;-87
2024/02/07 13:39:55;;;;;;;6.50;5.07;;;;;;;;;;5098743;28;20651;-89
2024/02/07 13:42:22;;;;;;;5.90;3.30;;;;;;;;;;5092953;28;20261;-87
2024/02/07 13:44:49;;;;;;;6.53;4.20;;;;;;;;;;5107280;28;20208;-87
2024/02/07 13:47:16;;;;;;;5.83;4.40;;;;;;;;;;5112790;28;20677;-87
2024/02/07 13:49:43;;;;;;;4.73;3.53;;;;;;;;;;5112635;28;20211;-88
2024/02/07 13:52:10;;;;;;;4.53;3.43;;;;;;;;;;5113058;28;20208;-87
2024/02/07 13:54:38;;;;;;;4.50;3.43;;;;;;;;;;5110964;28;20284;-88
2024/02/07 13:57:05;;;;;;;4.90;3.10;;;;;;;;;;5101329;28;20211;-87
2024/02/07 13:59:32;;;;;;;5.33;4.07;;;;;;;;;;5112412;28;20558;-87
2024/02/07 14:02:01;;;;;;;5.57;4.33;;;;;;;;;;5103348;28;20623;-88
2024/02/07 14:04:28;;;;;;;5.63;4.67;;;;;;;;;;5109471;28;20289;-88
2024/02/07 14:06:55;;;;;;;5.50;4.50;;;;;;;;;;5102257;28;20280;-88
2024/02/07 14:09:22;;;;;;;6.27;3.90;;;;;;;;;;5096630;28;20200;-88
2024/02/07 14:11:50;;;;;;;4.67;3.50;;;;;;;;;;5102040;28;20204;-88
2024/02/07 14:14:17;;;;;;;5.33;4.00;;;;;;;;;;5096275;28;20223;-88
2024/02/07 14:16:44;;;;;;;3.83;3.50;;;;;;;;;;5112273;28;20565;-87
2024/02/07 14:19:11;;;;;;;4.27;3.67;;;;;;;;;;5107079;28;20203;-88
2024/02/07 14:21:38;;;;;;;4.10;3.63;;;;;;;;;;5104072;28;20218;-88
2024/02/07 14:24:06;;;;;;;7.20;4.20;;;;;;;;;;5112350;28;20215;-88
2024/02/07 14:26:35;;;;;;;5.77;3.80;;;;;;;;;;5112580;28;20206;-88
2024/02/07 14:29:03;;;;;;;4.27;3.30;;;;;;;;;;5107838;28;20269;-88
2024/02/07 14:31:30;;;;;;;5.80;4.07;;;;;;;;;;5104040;28;20320;-88
2024/02/07 14:33:57;;;;;;;6.20;4.23;;;;;;;;;;5112315;28;20218;-88
2024/02/07 14:36:24;;;;;;;5.50;3.83;;;;;;;;;;5112686;28;20730;-88
2024/02/07 14:38:51;;;;;;;4.13;3.30;;;;;;;;;;5112430;28;20693;-88
2024/02/07 14:41:17;;;;;;;5.27;3.73;;;;;;;;;;5112807;28;20282;-88
2024/02/07 14:43:44;;;;;;;6.83;4.10;;;;;;;;;;5112171;28;20211;-88
2024/02/07 14:46:13;;;;;;;6.73;4.03;;;;;;;;;;5112109;28;20209;-88
2024/02/07 14:48:40;;;;;;;12.10;4.80;;;;;;;;;;5112047;28;20218;-88
2024/02/07 14:51:06;;;;;;;5.37;3.93;;;;;;;;;;5112513;28;20666;-88
2024/02/07 14:53:33;;;;;;;5.53;4.10;;;;;;;;;;5112038;28;20210;-88
2024/02/07 14:56:00;;;;;;;12.03;6.53;;;;;;;;;;5112010;28;20614;-88
2024/02/07 14:58:27;;;;;;;8.90;4.87;;;;;;;;;;5112181;28;20216;-88
2024/02/07 15:00:54;;;;;;;10.20;5.73;;;;;;;;;;5112417;28;20204;-87
2024/02/07 15:03:23;;;;;;;8.83;5.77;;;;;;;;;;5105552;28;20209;-88
2024/02/07 15:05:49;;;;;;;15.67;9.97;;;;;;;;;;5105456;28;20597;-88
2024/02/07 15:08:16;;;;;;;7.87;5.70;;;;;;;;;;5104955;28;20200;-87
2024/02/07 15:10:43;;;;;;;4.50;4.10;;;;;;;;;;5107532;28;20206;-88
2024/02/07 15:13:11;;;;;;;7.80;4.40;;;;;;;;;;5103316;28;20225;-87
2024/02/07 15:15:37;;;;;;;31.80;16.13;;;;;;;;;;5115717;28;20237;-87
2024/02/07 15:18:05;;;;;;;12.57;8.27;;;;;;;;;;5115955;28;20699;-88
2024/02/07 15:20:33;;;;;;;6.03;4.50;;;;;;;;;;5114206;28;20567;-88
2024/02/07 15:23:00;;;;;;;8.47;4.37;;;;;;;;;;5103256;28;20592;-88
2024/02/07 15:25:28;;;;;;;4.63;4.20;;;;;;;;;;5115316;28;20222;-88
2024/02/07 15:27:55;;;;;;;6.90;6.23;;;;;;;;;;5106832;28;20707;-88
2024/02/07 15:30:23;;;;;;;5.30;4.33;;;;;;;;;;5108829;28;20226;-87
2024/02/07 15:32:50;;;;;;;5.80;5.20;;;;;;;;;;5095213;28;20218;-88
2024/02/07 15:35:17;;;;;;;9.27;6.10;;;;;;;;;;5108388;28;20666;-87
2024/02/07 15:37:47;;;;;;;7.40;4.60;;;;;;;;;;5103719;28;20205;-88
2024/02/07 15:40:14;;;;;;;10.67;6.50;;;;;;;;;;5114125;28;20206;-88
2024/02/07 15:42:42;;;;;;;7.37;5.63;;;;;;;;;;5115209;28;20210;-88
2024/02/07 15:45:09;;;;;;;25.87;21.87;;;;;;;;;;5101484;28;20299;-87